Time;durP1;ratioP1;P1;durP2;ratioP2;P2;SDS_P1;SDS_P2;PMS_P1;PMS_P2;Temp;Humidity;BMP_temperature;BMP_pressure;BME280_temperature;BME280_humidity;BME280_pressure;Samples;Min_cycle;Max_cycle;Signal;HPM_P1;HPM_P2
2022/03/08 00:21:40;;;;;;;6.47;3.72;;;;;;;1.97;49.19;98492.75;12842757;23;20017;-76
2022/03/08 00:36:11;;;;;;;7.07;4.15;;;;;;;1.85;49.56;98490.66;12864418;23;20021;-76
2022/03/08 00:41:35;;;;;;;7.28;4.30;;;;;;;1.84;50.11;98489.91;12822742;23;20424;-76
2022/03/08 01:21:22;;;;;;;8.65;4.28;;;;;;;1.63;50.67;98472.34;12863630;23;20025;-76
2022/03/08 02:09:06;;;;;;;6.22;3.92;;;;;;;1.52;51.38;98453.94;12862864;23;20382;-78
2022/03/08 02:14:55;;;;;;;7.05;3.72;;;;;;;1.50;51.41;98441.97;12829806;23;20020;-76
2022/03/08 03:02:39;;;;;;;6.47;4.05;;;;;;;1.19;51.90;98438.53;12866199;23;20100;-76
2022/03/08 03:08:30;;;;;;;8.77;4.85;;;;;;;1.13;52.13;98440.59;12821824;23;20028;-76
2022/03/08 05:19:02;;;;;;;8.98;5.38;;;;;;;0.35;54.86;98463.16;12866572;22;20036;-76
2022/03/08 05:58:45;;;;;;;7.57;5.00;;;;;;;5.74;49.86;98491.34;12863010;23;20021;-76
2022/03/08 06:04:36;;;;;;;9.05;5.53;;;;;;;6.18;49.77;98491.47;12809311;23;20021;-77
2022/03/08 06:25:15;;;;;;;7.30;4.85;;;;;;;13.88;41.26;98507.22;12739653;23;20029;-76
2022/03/08 06:31:13;;;;;;;8.18;4.95;;;;;;;15.57;36.95;98501.06;12708161;23;20026;-77
2022/03/08 06:38:06;;;;;;;8.77;5.68;;;;;;;17.14;33.61;98504.34;12740227;23;20337;-76
2022/03/08 06:44:29;;;;;;;8.05;4.95;;;;;;;18.72;30.63;98508.88;12739088;23;20021;-73
2022/03/08 06:50:27;;;;;;;7.22;5.20;;;;;;;20.01;29.04;98509.72;12722863;23;20033;-73
2022/03/08 06:56:54;;;;;;;7.35;5.13;;;;;;;19.00;28.99;98520.78;12722899;23;20025;-74
2022/03/08 07:02:15;;;;;;;8.52;5.10;;;;;;;18.12;31.33;98537.69;12758397;23;20402;-74
2022/03/08 07:08:06;;;;;;;8.95;5.38;;;;;;;21.28;29.15;98524.78;12724276;23;20029;-76
2022/03/08 07:13:28;;;;;;;6.90;4.97;;;;;;;22.94;26.79;98526.25;12740186;23;20018;-73
2022/03/08 07:18:49;;;;;;;8.00;5.38;;;;;;;24.06;23.21;98526.66;12720156;23;20344;-73
2022/03/08 07:24:10;;;;;;;7.70;5.05;;;;;;;25.10;23.47;98538.56;12762634;23;20021;-73
2022/03/08 07:29:31;;;;;;;6.85;4.05;;;;;;;26.24;20.71;98528.69;12741046;23;20017;-73
2022/03/08 07:34:52;;;;;;;7.28;4.82;;;;;;;27.10;20.84;98534.44;12761598;23;20081;-73
2022/03/08 07:40:12;;;;;;;7.45;4.68;;;;;;;27.21;15.57;98529.56;12802591;23;20372;-73
2022/03/08 07:45:35;;;;;;;7.53;5.20;;;;;;;26.23;16.34;98535.81;12762433;23;20316;-73
2022/03/08 07:50:56;;;;;;;8.43;4.32;;;;;;;24.18;16.70;98543.34;12782781;23;20024;-73
2022/03/08 07:56:18;;;;;;;9.73;4.73;;;;;;;22.34;19.31;98536.38;12802558;23;20092;-73
2022/03/08 08:01:39;;;;;;;6.10;3.95;;;;;;;21.37;20.33;98535.06;12759935;23;20143;-77
2022/03/08 08:07:00;;;;;;;5.03;4.00;;;;;;;21.41;21.04;98549.41;12759723;23;20091;-76
2022/03/08 08:12:23;;;;;;;7.13;4.90;;;;;;;21.82;22.94;98539.56;12758956;23;20021;-78
2022/03/08 08:17:44;;;;;;;5.70;3.60;;;;;;;24.14;21.03;98543.25;12759417;23;20025;-76
2022/03/08 08:23:05;;;;;;;5.68;3.40;;;;;;;28.00;17.95;98543.47;12765005;23;20021;-77
2022/03/08 08:28:25;;;;;;;7.70;3.85;;;;;;;31.82;13.39;98544.13;12758965;23;20381;-77
2022/03/08 08:33:54;;;;;;;6.07;3.70;;;;;;;34.93;11.65;98543.69;12782258;23;20516;-77
2022/03/08 08:39:15;;;;;;;5.38;3.40;;;;;;;38.20;9.32;98554.81;12780497;23;20093;-77
2022/03/08 08:44:35;;;;;;;5.63;3.42;;;;;;;38.58;7.30;98552.19;12779215;23;20020;-78
2022/03/08 08:49:56;;;;;;;7.07;3.30;;;;;;;39.05;7.00;98550.66;12778971;23;20016;-79
2022/03/08 08:55:17;;;;;;;5.15;3.20;;;;;;;39.50;6.46;98543.97;12758490;23;20013;-79
2022/03/08 09:00:38;;;;;;;4.60;3.30;;;;;;;40.80;5.93;98530.13;12778576;23;20028;-77
2022/03/08 09:05:59;;;;;;;3.90;2.63;;;;;;;42.78;5.28;98521.78;12744916;23;20017;-79
2022/03/08 09:11:20;;;;;;;3.75;2.55;;;;;;;41.77;4.92;98521.50;12779472;23;20447;-76
2022/03/08 09:16:42;;;;;;;4.32;2.67;;;;;;;42.66;4.84;98515.78;12779784;23;20084;-78
2022/03/08 09:22:04;;;;;;;3.08;2.10;;;;;;;42.59;3.93;98527.16;12768814;23;20017;-80
2022/03/08 09:27:24;;;;;;;4.25;2.53;;;;;;;41.88;4.19;98518.81;12758787;23;20511;-79
2022/03/08 09:32:45;;;;;;;3.28;2.05;;;;;;;42.24;3.97;98520.00;12778523;23;20017;-77
2022/03/08 09:38:06;;;;;;;3.40;1.35;;;;;;;41.53;4.39;98529.19;12777083;23;20527;-77
2022/03/08 09:43:28;;;;;;;2.03;1.40;;;;;;;40.99;4.68;98520.59;12777668;23;20017;-77
2022/03/08 09:48:51;;;;;;;3.40;1.77;;;;;;;41.14;4.31;98519.16;12794110;23;20028;-77
2022/03/08 09:54:12;;;;;;;4.03;1.88;;;;;;;42.04;3.67;98523.91;12794297;23;20522;-77
2022/03/08 09:59:33;;;;;;;3.92;1.63;;;;;;;43.07;3.91;98532.78;12775068;23;20024;-77
2022/03/08 10:05:02;;;;;;;3.00;1.25;;;;;;;42.86;3.83;98521.34;12749039;23;20013;-77
2022/03/08 10:10:23;;;;;;;3.58;1.23;;;;;;;43.21;3.61;98519.56;12798543;23;20010;-77
2022/03/08 10:16:29;;;;;;;4.50;1.45;;;;;;;42.63;3.36;98509.31;12781710;23;20021;-77
2022/03/08 10:21:55;;;;;;;2.78;1.42;;;;;;;43.27;3.49;98507.50;12799071;23;20396;-77
2022/03/08 10:27:16;;;;;;;5.20;1.20;;;;;;;43.56;3.16;98500.84;12759394;23;20080;-79
2022/03/08 10:32:37;;;;;;;2.60;1.20;;;;;;;42.56;3.27;98514.81;12778576;23;20013;-78
2022/03/08 10:38:03;;;;;;;3.95;1.10;;;;;;;41.85;3.58;98509.41;12777475;23;20021;-81
2022/03/08 10:43:27;;;;;;;3.27;1.07;;;;;;;42.06;3.58;98509.13;12758651;23;20377;-83
2022/03/08 10:48:48;;;;;;;3.22;0.77;;;;;;;41.50;3.24;98504.41;12761787;23;20027;-81
2022/03/08 10:54:13;;;;;;;2.30;0.90;;;;;;;42.47;3.53;98495.47;12716790;23;20103;-80
2022/03/08 10:59:35;;;;;;;2.60;1.00;;;;;;;42.51;2.84;98495.97;12741910;23;20017;-81
2022/03/08 11:05:14;;;;;;;2.17;0.85;;;;;;;37.81;3.96;98491.91;12761611;23;20044;-82
2022/03/08 11:10:35;;;;;;;2.40;1.10;;;;;;;31.96;5.56;98482.72;12761075;23;20020;-81
2022/03/08 11:15:56;;;;;;;3.47;0.90;;;;;;;27.49;8.27;98488.34;12759144;23;20310;-77
2022/03/08 11:21:17;;;;;;;2.67;1.33;;;;;;;25.21;8.91;98476.66;12753683;23;20017;-78
2022/03/08 11:26:38;;;;;;;4.57;1.98;;;;;;;23.63;11.33;98471.34;12781863;23;20017;-77
2022/03/08 11:31:59;;;;;;;4.60;1.33;;;;;;;21.67;12.08;98458.75;12759436;23;20420;-78
2022/03/08 11:37:22;;;;;;;2.30;0.95;;;;;;;20.64;13.33;98458.44;12760417;23;20021;-77
2022/03/08 11:42:46;;;;;;;2.47;1.00;;;;;;;19.23;13.71;98448.25;12759877;23;20021;-77
2022/03/08 11:48:09;;;;;;;1.65;0.82;;;;;;;18.70;13.92;98452.22;12760419;23;20013;-77
2022/03/08 11:53:30;;;;;;;3.27;1.30;;;;;;;18.16;15.18;98453.13;12781664;23;20016;-79
2022/03/08 11:58:50;;;;;;;4.68;1.70;;;;;;;17.48;15.03;98459.56;12780382;23;20017;-77
2022/03/08 12:04:16;;;;;;;2.95;1.48;;;;;;;16.74;16.18;98452.13;12760361;23;20017;-78
2022/03/08 12:09:39;;;;;;;3.22;1.88;;;;;;;16.51;16.46;98456.53;12759544;23;20024;-79
2022/03/08 12:15:02;;;;;;;3.28;1.77;;;;;;;16.45;16.83;98453.34;12780114;23;20428;-78
2022/03/08 12:20:24;;;;;;;6.32;2.38;;;;;;;15.96;17.34;98461.13;12738860;23;20083;-79
2022/03/08 12:26:37;;;;;;;5.38;1.88;;;;;;;15.80;18.08;98457.38;12738530;23;20333;-77
2022/03/08 12:32:41;;;;;;;4.32;2.10;;;;;;;15.59;18.54;98455.41;12745769;23;20024;-77
2022/03/08 12:38:03;;;;;;;3.83;1.85;;;;;;;15.93;18.26;98442.66;12798694;23;20444;-78
2022/03/08 12:43:26;;;;;;;3.75;1.70;;;;;;;16.01;18.03;98443.09;12801225;23;20012;-79
2022/03/08 12:48:47;;;;;;;6.53;1.88;;;;;;;16.03;17.92;98435.53;12800723;23;20450;-83
2022/03/08 12:54:08;;;;;;;4.68;1.73;;;;;;;15.49;17.83;98424.59;12760024;23;20025;-80
2022/03/08 12:59:29;;;;;;;4.63;2.10;;;;;;;15.42;18.33;98409.44;12759498;23;20028;-80
2022/03/08 13:04:50;;;;;;;3.72;1.98;;;;;;;15.31;18.74;98401.00;12772514;23;20017;-80
2022/03/08 13:10:12;;;;;;;3.38;1.70;;;;;;;15.11;19.46;98397.72;12782412;23;20021;-79
2022/03/08 13:15:32;;;;;;;3.40;1.60;;;;;;;15.07;18.57;98392.59;12793991;23;20020;-81
2022/03/08 13:20:59;;;;;;;4.78;1.70;;;;;;;14.82;18.79;98396.00;12810437;23;20035;-80
2022/03/08 13:32:11;;;;;;;3.60;1.77;;;;;;;14.76;18.66;98380.84;12689425;23;20033;-79
2022/03/08 13:37:48;;;;;;;2.72;1.67;;;;;;;14.47;18.60;98379.09;12739264;23;20028;-79
2022/03/08 13:43:11;;;;;;;2.78;1.80;;;;;;;13.98;18.52;98387.22;12780520;23;20025;-78
2022/03/08 13:49:03;;;;;;;4.60;2.10;;;;;;;13.70;18.95;98385.38;12791363;23;20017;-79
2022/03/08 13:54:26;;;;;;;4.70;1.90;;;;;;;13.63;18.71;98389.88;12779856;23;20013;-79
2022/03/08 13:59:47;;;;;;;5.15;1.92;;;;;;;13.62;19.01;98387.66;12758910;23;20440;-79
2022/03/08 14:05:09;;;;;;;4.30;2.13;;;;;;;13.64;18.98;98385.72;12759479;23;20024;-79
2022/03/08 14:10:30;;;;;;;5.22;2.00;;;;;;;13.48;19.05;98393.06;12801034;23;20514;-79
2022/03/08 14:16:03;;;;;;;5.35;2.10;;;;;;;13.58;18.99;98385.31;12780573;23;20156;-79
2022/03/08 14:21:32;;;;;;;5.93;2.10;;;;;;;13.54;18.55;98375.91;12742587;23;20352;-79
2022/03/08 14:27:04;;;;;;;4.60;2.17;;;;;;;13.22;18.89;98377.28;12800761;23;20017;-79
2022/03/08 14:32:38;;;;;;;3.95;1.85;;;;;;;13.10;19.08;98377.91;12780243;23;20451;-79
2022/03/08 14:38:07;;;;;;;5.10;2.78;;;;;;;12.97;19.76;98372.09;12783673;23;20380;-79
2022/03/08 14:43:27;;;;;;;5.07;2.40;;;;;;;12.81;19.42;98375.22;12741094;23;20029;-79
2022/03/08 14:48:48;;;;;;;3.80;2.03;;;;;;;12.70;19.45;98375.88;12762138;23;20021;-79
2022/03/08 14:54:39;;;;;;;4.53;2.47;;;;;;;12.48;19.56;98374.31;12772477;23;20029;-79
2022/03/08 15:00:28;;;;;;;6.55;2.88;;;;;;;12.52;19.38;98360.59;12756112;23;20080;-79
2022/03/08 15:05:49;;;;;;;12.45;2.15;;;;;;;12.53;19.44;98360.00;12768139;23;20021;-79
2022/03/08 15:11:11;;;;;;;4.97;2.67;;;;;;;12.44;19.96;98365.63;12758619;23;20017;-79
2022/03/08 15:16:32;;;;;;;4.10;2.33;;;;;;;12.32;20.00;98365.53;12801039;23;20013;-79
2022/03/08 15:21:53;;;;;;;4.78;2.95;;;;;;;12.09;20.30;98377.19;12740103;23;20032;-79
2022/03/08 15:27:14;;;;;;;4.03;2.03;;;;;;;11.96;20.41;98375.56;12779974;23;20013;-79
2022/03/08 15:32:36;;;;;;;4.72;2.42;;;;;;;11.89;20.38;98370.88;12782055;23;20024;-79
2022/03/08 15:37:56;;;;;;;4.75;2.33;;;;;;;11.68;20.57;98370.72;12761991;23;20020;-79
2022/03/08 15:43:17;;;;;;;3.78;2.25;;;;;;;11.54;20.96;98364.81;12763827;23;20048;-79
2022/03/08 15:48:38;;;;;;;6.93;2.63;;;;;;;11.40;21.05;98367.31;12785623;23;20021;-80
2022/03/08 15:53:58;;;;;;;5.05;2.40;;;;;;;11.27;21.13;98372.56;12763974;23;20436;-80
2022/03/08 15:59:20;;;;;;;4.13;2.35;;;;;;;11.01;21.24;98372.06;12744344;23;20024;-80
2022/03/08 16:04:41;;;;;;;6.88;2.70;;;;;;;10.85;21.48;98371.56;12795573;23;20023;-81
2022/03/08 16:10:03;;;;;;;5.90;2.85;;;;;;;10.81;21.91;98373.34;12806058;23;20044;-78
2022/03/08 16:15:24;;;;;;;5.03;2.53;;;;;;;10.63;21.74;98377.50;12796882;23;20040;-84
2022/03/08 16:20:45;;;;;;;4.63;2.25;;;;;;;10.37;21.88;98378.97;12843824;23;20073;-83
2022/03/08 16:26:06;;;;;;;6.20;2.50;;;;;;;10.00;22.09;98381.66;12774930;23;20021;-77
2022/03/08 16:31:29;;;;;;;11.10;2.05;;;;;;;9.85;22.28;98381.84;12800848;23;20336;-79
2022/03/08 16:36:51;;;;;;;4.40;2.10;;;;;;;9.61;22.73;98381.34;12795346;23;20029;-80
2022/03/08 16:42:14;;;;;;;5.97;2.20;;;;;;;9.49;22.79;98394.28;12770391;23;20013;-80
2022/03/08 16:47:36;;;;;;;6.22;1.85;;;;;;;9.40;22.93;98392.91;12762884;23;20318;-78
2022/03/08 16:53:27;;;;;;;5.10;2.03;;;;;;;9.27;23.32;98398.78;12778584;23;20021;-77
2022/03/08 16:58:49;;;;;;;8.68;2.30;;;;;;;9.06;23.36;98403.94;12808747;23;20013;-78
2022/03/08 17:04:10;;;;;;;6.43;2.55;;;;;;;8.91;23.64;98404.09;12763962;23;20017;-80
2022/03/08 17:09:31;;;;;;;5.88;2.13;;;;;;;8.72;23.66;98413.69;12756606;23;20017;-80
2022/03/08 17:14:52;;;;;;;7.70;2.28;;;;;;;8.54;24.30;98404.50;12786360;23;19993;-83
2022/03/08 17:28:57;;;;;;;6.05;3.53;;;;;;;8.33;24.34;98435.38;12802530;23;20013;-77
2022/03/08 17:34:47;;;;;;;5.80;2.83;;;;;;;8.22;24.88;98446.94;12773713;23;20025;-80
2022/03/08 17:40:11;;;;;;;10.68;2.95;;;;;;;8.18;25.08;98452.13;12801136;23;20020;-79
2022/03/08 17:45:35;;;;;;;6.28;3.10;;;;;;;8.07;25.23;98455.31;12803484;23;20040;-79
2022/03/08 17:50:56;;;;;;;9.13;3.23;;;;;;;8.01;25.15;98449.25;12778689;23;20479;-78
2022/03/08 17:56:23;;;;;;;7.05;3.42;;;;;;;7.97;25.57;98462.75;12780639;23;20013;-77
2022/03/08 18:02:14;;;;;;;10.57;5.45;;;;;;;7.91;25.64;98462.22;12788817;23;20024;-79
2022/03/08 18:07:36;;;;;;;8.20;4.22;;;;;;;7.81;25.84;98475.19;12772951;23;20037;-81
2022/03/08 18:12:57;;;;;;;9.02;4.35;;;;;;;7.69;26.14;98481.16;12774235;23;20017;-79
2022/03/08 18:18:18;;;;;;;7.07;4.28;;;;;;;7.65;26.35;98491.91;12781630;23;20375;-79
2022/03/08 18:23:39;;;;;;;7.00;4.00;;;;;;;7.56;26.27;98480.63;12710961;23;20029;-79
2022/03/08 18:29:00;;;;;;;11.25;4.88;;;;;;;7.46;26.66;98488.78;12699041;23;20028;-80
2022/03/08 18:34:21;;;;;;;11.38;6.38;;;;;;;7.32;27.08;98490.25;12739236;23;20021;-79
2022/03/08 18:39:42;;;;;;;12.40;6.60;;;;;;;7.15;27.50;98499.88;12697725;23;20017;-79
2022/03/08 18:45:06;;;;;;;14.30;7.35;;;;;;;7.05;27.47;98503.75;12718594;23;20024;-79
2022/03/08 18:50:27;;;;;;;13.37;6.47;;;;;;;6.93;27.70;98508.16;12719678;23;20076;-79
2022/03/08 18:55:48;;;;;;;10.48;6.38;;;;;;;6.89;28.06;98494.66;12697147;23;20013;-79
2022/03/08 19:01:12;;;;;;;15.60;6.97;;;;;;;6.84;28.15;98493.50;12700375;23;20014;-79
2022/03/08 19:06:34;;;;;;;13.52;7.15;;;;;;;6.78;28.34;98497.78;12698138;23;20109;-80
2022/03/08 19:11:57;;;;;;;13.73;6.68;;;;;;;6.73;28.56;98491.09;12700857;23;20023;-79
2022/03/08 19:17:20;;;;;;;14.73;6.68;;;;;;;6.71;28.93;98495.72;12703336;23;20412;-79
2022/03/08 19:23:09;;;;;;;13.23;7.10;;;;;;;6.65;29.13;98484.78;12756669;23;20020;-79
2022/03/08 19:28:32;;;;;;;17.55;6.88;;;;;;;6.53;29.50;98489.94;12783900;23;20024;-79
2022/03/08 19:33:53;;;;;;;14.25;6.60;;;;;;;6.49;29.78;98488.81;12785316;23;20067;-75
2022/03/08 19:39:15;;;;;;;15.27;7.80;;;;;;;6.46;29.67;98487.84;12783068;23;20352;-77
2022/03/08 19:44:56;;;;;;;18.23;8.50;;;;;;;6.43;29.84;98493.78;12769948;23;20067;-77
2022/03/08 19:51:51;;;;;;;18.02;9.15;;;;;;;6.33;31.01;98493.53;12789526;23;20100;-79
2022/03/08 19:57:40;;;;;;;18.13;8.40;;;;;;;6.24;30.49;98486.47;12772182;23;20025;-77
2022/03/08 20:03:33;;;;;;;16.90;8.80;;;;;;;6.13;31.20;98481.25;12772492;23;20033;-77
2022/03/08 20:09:29;;;;;;;15.15;8.10;;;;;;;6.04;31.72;98473.44;12772898;23;20436;-77
2022/03/08 20:15:20;;;;;;;14.00;7.53;;;;;;;5.97;31.05;98485.97;12774099;23;20428;-77
2022/03/08 20:20:50;;;;;;;13.80;8.02;;;;;;;5.93;32.00;98491.13;12740212;23;20040;-78
2022/03/08 20:26:18;;;;;;;13.98;8.32;;;;;;;5.94;31.58;98487.06;12777061;23;20021;-78
2022/03/08 20:32:11;;;;;;;13.77;7.60;;;;;;;5.89;31.70;98490.72;12773002;23;20025;-78
2022/03/08 20:37:42;;;;;;;14.35;8.27;;;;;;;5.84;31.85;98488.09;12763605;23;20021;-79
2022/03/08 20:44:04;;;;;;;15.98;8.52;;;;;;;5.84;32.24;98491.59;12771730;23;20344;-78
2022/03/08 20:49:28;;;;;;;19.75;10.10;;;;;;;5.79;32.07;98497.28;12802509;23;20017;-77
2022/03/08 20:55:50;;;;;;;16.83;9.27;;;;;;;5.56;32.11;98497.13;12757522;23;20325;-77
2022/03/08 21:01:20;;;;;;;22.80;11.98;;;;;;;5.39;32.37;98509.38;12802789;23;20024;-77
2022/03/08 21:07:10;;;;;;;19.35;10.07;;;;;;;5.31;33.02;98511.34;12786071;23;20021;-77
2022/03/08 21:29:39;;;;;;;24.23;11.35;;;;;;;5.22;33.91;98509.06;12801039;23;19983;-75
2022/03/08 21:43:39;;;;;;;14.18;7.72;;;;;;;4.76;34.34;98500.31;12801143;23;20096;-75
2022/03/08 21:57:30;;;;;;;13.65;8.13;;;;;;;4.57;34.57;98508.03;12784772;23;20017;-75
2022/03/08 22:11:53;;;;;;;14.15;7.43;;;;;;;4.48;35.58;98502.94;12782368;23;20060;-75
2022/03/08 22:34:25;;;;;;;18.58;9.57;;;;;;;4.23;36.91;98516.25;12752850;23;20017;-75
2022/03/08 22:41:19;;;;;;;18.60;8.90;;;;;;;4.17;36.80;98519.16;12755859;23;20025;-76
2022/03/08 22:46:47;;;;;;;14.05;8.48;;;;;;;4.21;36.19;98527.84;12783140;23;20352;-75
2022/03/08 22:53:20;;;;;;;26.20;15.02;;;;;;;4.16;37.27;98531.47;12753792;23;20017;-75
2022/03/08 23:22:19;;;;;;;16.00;9.25;;;;;;;3.81;37.59;98535.41;12805441;23;19916;-75
2022/03/08 23:35:43;;;;;;;13.43;7.60;;;;;;;3.49;38.23;98546.50;12805141;23;20025;-75
2022/03/08 23:41:44;;;;;;;13.50;7.20;;;;;;;3.50;37.58;98541.72;12759019;23;20099;-75
2022/03/08 23:47:35;;;;;;;15.48;8.38;;;;;;;3.44;38.01;98542.56;12759331;23;20025;-75
2022/03/08 23:54:34;;;;;;;14.52;7.70;;;;;;;3.48;38.38;98561.59;12772488;23;20025;-75
